Time;durP1;ratioP1;P1;durP2;ratioP2;P2;SDS_P1;SDS_P2;PMS_P1;PMS_P2;Temp;Humidity;BMP_temperature;BMP_pressure;BME280_temperature;BME280_humidity;BME280_pressure;Samples;Min_cycle;Max_cycle;Signal;HPM_P1;HPM_P2
2022/03/11 00:00:46;;;;;;;13.43;6.55;;;;;;;5.80;45.44;101750.75;4954691;28;20113;-87
2022/03/11 00:03:13;;;;;;;11.73;6.30;;;;;;;5.81;45.79;101746.44;4956630;28;20525;-87
2022/03/11 00:05:41;;;;;;;11.40;6.32;;;;;;;5.81;45.31;101749.03;4971944;28;20496;-87
2022/03/11 00:08:07;;;;;;;11.27;6.40;;;;;;;5.79;45.79;101749.03;4968616;28;20487;-87
2022/03/11 00:10:33;;;;;;;11.65;5.97;;;;;;;5.78;46.18;101744.72;4955125;28;20027;-87
2022/03/11 00:12:58;;;;;;;15.38;6.50;;;;;;;5.75;46.28;101742.94;4970309;28;20471;-87
2022/03/11 00:15:24;;;;;;;12.07;5.97;;;;;;;5.74;45.82;101737.78;4972274;28;20034;-87
2022/03/11 00:17:50;;;;;;;12.73;6.90;;;;;;;5.71;46.23;101735.16;4971954;28;20018;-87
2022/03/11 00:20:21;;;;;;;17.73;7.20;;;;;;;5.66;46.47;101731.66;4972658;28;20129;-87
2022/03/11 00:22:47;;;;;;;11.70;6.22;;;;;;;5.62;46.63;101739.41;4973040;28;20031;-87
2022/03/11 00:25:13;;;;;;;12.32;6.57;;;;;;;5.56;47.16;101731.59;4971429;28;20030;-87
2022/03/11 00:27:38;;;;;;;12.02;6.68;;;;;;;5.50;46.70;101741.84;4987340;28;21703;-87
2022/03/11 00:30:04;;;;;;;16.63;7.20;;;;;;;5.43;46.67;101733.19;4971580;28;20022;-88
2022/03/11 00:32:29;;;;;;;12.82;6.55;;;;;;;5.36;47.65;101735.69;4978175;28;20035;-88
2022/03/11 00:34:55;;;;;;;13.93;6.72;;;;;;;5.30;47.34;101732.19;4980531;28;20073;-87
2022/03/11 00:37:20;;;;;;;12.90;7.20;;;;;;;5.25;47.58;101730.41;4991032;28;20026;-87
2022/03/11 00:39:45;;;;;;;13.73;6.53;;;;;;;5.20;47.77;101732.94;4991127;28;20061;-87
2022/03/11 00:42:10;;;;;;;11.88;6.40;;;;;;;5.14;47.98;101730.28;4988809;28;20023;-87
2022/03/11 00:44:36;;;;;;;11.80;6.50;;;;;;;5.09;48.07;101729.41;4986117;28;20030;-87
2022/03/11 00:47:02;;;;;;;12.60;6.78;;;;;;;5.03;48.21;101730.19;4990005;28;20521;-87
2022/03/11 00:49:27;;;;;;;15.43;7.13;;;;;;;4.96;48.78;101729.22;4990086;28;20030;-87
2022/03/11 00:51:52;;;;;;;11.65;6.55;;;;;;;4.92;48.48;101730.06;4992468;28;20050;-87
2022/03/11 00:54:18;;;;;;;11.30;6.57;;;;;;;4.88;48.19;101723.13;4988786;28;20504;-87
2022/03/11 00:56:43;;;;;;;13.75;7.05;;;;;;;4.85;48.85;101718.81;4990079;28;20478;-87
2022/03/11 00:59:08;;;;;;;12.63;6.35;;;;;;;4.80;48.75;101723.03;4989001;28;20030;-87
2022/03/11 01:01:33;;;;;;;13.50;6.20;;;;;;;4.75;49.01;101723.84;4986344;28;20026;-87
2022/03/11 01:03:59;;;;;;;13.68;7.38;;;;;;;4.73;48.86;101720.38;4988086;28;20038;-87
2022/03/11 01:06:24;;;;;;;13.05;6.80;;;;;;;4.70;49.43;101721.16;4990465;28;20533;-88
2022/03/11 01:08:49;;;;;;;13.32;6.50;;;;;;;4.66;49.15;101719.44;4982062;28;20037;-87
2022/03/11 01:11:14;;;;;;;13.82;6.85;;;;;;;4.61;49.27;101706.44;4989565;28;20034;-87
2022/03/11 01:13:40;;;;;;;15.02;7.32;;;;;;;4.58;49.77;101709.00;4988710;28;20026;-87
2022/03/11 01:16:06;;;;;;;13.60;6.50;;;;;;;4.54;49.79;101696.94;4989859;28;20036;-87
2022/03/11 01:18:31;;;;;;;13.10;6.72;;;;;;;4.52;49.54;101698.63;4988793;28;20022;-87
2022/03/11 01:20:57;;;;;;;12.03;6.87;;;;;;;4.49;49.90;101701.16;4988694;28;20152;-87
2022/03/11 01:23:23;;;;;;;13.10;7.38;;;;;;;4.47;50.13;101692.53;4988648;28;20482;-87
2022/03/11 01:25:48;;;;;;;12.02;6.80;;;;;;;4.44;49.75;101700.25;4991470;28;20041;-87
2022/03/11 01:28:14;;;;;;;13.48;7.05;;;;;;;4.40;50.15;101687.31;4989409;28;20034;-87
2022/03/11 01:30:40;;;;;;;11.97;6.47;;;;;;;4.38;49.70;101683.84;4990538;28;20042;-87
2022/03/11 01:33:06;;;;;;;12.57;6.63;;;;;;;4.36;49.70;101679.50;4988470;28;20222;-87
2022/03/11 01:35:31;;;;;;;12.27;6.70;;;;;;;4.36;49.64;101676.91;4986611;28;20607;-87
2022/03/11 01:37:57;;;;;;;12.57;6.40;;;;;;;4.35;50.50;101680.38;4970163;28;20058;-87
2022/03/11 01:40:22;;;;;;;12.38;6.30;;;;;;;4.33;49.90;101670.03;4970900;28;20038;-87
2022/03/11 01:42:47;;;;;;;14.10;6.93;;;;;;;4.32;49.77;101664.88;4969392;28;20130;-86
2022/03/11 01:45:13;;;;;;;13.10;7.13;;;;;;;4.35;49.70;101664.91;4971944;28;20451;-87
2022/03/11 01:47:38;;;;;;;13.57;6.72;;;;;;;4.37;49.41;101660.63;4961835;28;20037;-86
2022/03/11 01:50:04;;;;;;;13.15;6.50;;;;;;;4.39;49.06;101649.50;4952069;28;20447;-87
2022/03/11 01:52:29;;;;;;;14.77;6.25;;;;;;;4.44;49.16;101648.72;4971763;28;20085;-86
2022/03/11 01:54:55;;;;;;;16.73;6.65;;;;;;;4.47;49.00;101649.59;4970037;28;20038;-87
2022/03/11 01:57:21;;;;;;;13.83;6.13;;;;;;;4.49;49.12;101639.31;4954172;28;20034;-86
2022/03/11 01:59:46;;;;;;;11.67;6.17;;;;;;;4.51;49.11;101640.19;4975563;28;20111;-87
2022/03/11 02:02:11;;;;;;;14.87;6.60;;;;;;;4.51;48.92;101635.91;4972353;28;20107;-86
2022/03/11 02:04:37;;;;;;;14.73;6.93;;;;;;;4.52;48.97;101637.66;4970015;28;20433;-87
2022/03/11 02:07:04;;;;;;;13.13;6.90;;;;;;;4.53;49.09;101630.78;4969706;28;20479;-86
2022/03/11 02:09:30;;;;;;;15.00;7.43;;;;;;;4.53;49.48;101633.34;4969334;28;20027;-86
2022/03/11 02:11:55;;;;;;;12.25;6.60;;;;;;;4.52;48.81;101629.94;4970609;28;20027;-87
2022/03/11 02:14:20;;;;;;;13.15;6.88;;;;;;;4.51;49.00;101627.31;4973899;28;20162;-87
2022/03/11 02:16:45;;;;;;;13.27;7.00;;;;;;;4.50;49.23;101620.41;4973729;28;20029;-86
2022/03/11 02:19:11;;;;;;;13.65;6.90;;;;;;;4.48;49.65;101617.84;4955675;28;20034;-87
2022/03/11 02:21:44;;;;;;;11.83;6.47;;;;;;;4.48;48.75;101611.81;4975597;28;20042;-87
2022/03/11 02:24:12;;;;;;;14.37;6.67;;;;;;;4.50;49.18;101605.84;4973351;28;20027;-87
2022/03/11 02:26:38;;;;;;;12.23;6.33;;;;;;;4.50;49.58;101604.97;4957204;28;20137;-86
2022/03/11 02:29:05;;;;;;;12.70;6.68;;;;;;;4.48;49.52;101599.81;4956046;28;20432;-86
2022/03/11 02:31:31;;;;;;;12.38;6.50;;;;;;;4.47;49.14;101599.78;4956579;28;20034;-87
2022/03/11 02:33:57;;;;;;;12.10;6.18;;;;;;;4.45;49.50;101598.88;4974790;28;20031;-87
2022/03/11 02:36:23;;;;;;;11.97;6.40;;;;;;;4.42;49.59;101592.00;4989558;28;20138;-87
2022/03/11 02:38:48;;;;;;;12.90;6.63;;;;;;;4.38;49.72;101593.69;4993019;28;20477;-87
2022/03/11 02:41:14;;;;;;;12.70;6.63;;;;;;;4.36;49.88;101591.91;4993011;28;20030;-87
2022/03/11 02:43:41;;;;;;;11.83;6.43;;;;;;;4.34;49.87;101586.75;4993299;28;20026;-87
2022/03/11 02:46:07;;;;;;;11.97;6.80;;;;;;;4.32;49.99;101591.00;4990691;28;20029;-87
2022/03/11 02:48:32;;;;;;;12.60;6.80;;;;;;;4.31;50.15;101591.00;4992727;28;20030;-86
2022/03/11 02:50:58;;;;;;;15.70;7.33;;;;;;;4.29;49.92;101585.81;4989699;28;20026;-87
2022/03/11 02:53:23;;;;;;;13.23;6.87;;;;;;;4.27;49.77;101584.94;4986035;28;20088;-87
2022/03/11 02:55:49;;;;;;;11.68;6.53;;;;;;;4.23;50.00;101586.59;4992832;28;20034;-87
2022/03/11 02:58:14;;;;;;;12.83;6.73;;;;;;;4.21;50.23;101580.56;4986432;28;20019;-87
2022/03/11 03:00:39;;;;;;;15.20;7.10;;;;;;;4.20;49.86;101573.69;4992811;28;20030;-87
2022/03/11 03:03:05;;;;;;;14.07;6.93;;;;;;;4.20;50.31;101580.56;4992722;28;20080;-87
2022/03/11 03:05:30;;;;;;;14.17;7.37;;;;;;;4.19;50.38;101578.84;4992537;28;20496;-87
2022/03/11 03:07:55;;;;;;;15.33;6.73;;;;;;;4.17;49.76;101575.38;4992380;28;20045;-87
2022/03/11 03:10:21;;;;;;;12.33;6.57;;;;;;;4.16;50.07;101576.22;4993126;28;20151;-87
2022/03/11 03:12:46;;;;;;;18.10;6.47;;;;;;;4.13;50.52;101578.75;4992248;28;20367;-87
2022/03/11 03:15:11;;;;;;;14.50;7.57;;;;;;;4.10;50.02;101570.13;4993052;28;20117;-87
2022/03/11 03:17:37;;;;;;;12.17;6.63;;;;;;;4.08;50.17;101570.97;4991889;28;20058;-87
2022/03/11 03:20:04;;;;;;;11.80;6.53;;;;;;;4.08;50.16;101570.97;4992484;28;20480;-87
2022/03/11 03:22:29;;;;;;;13.07;7.27;;;;;;;4.09;49.91;101572.69;4992193;28;20169;-87
2022/03/11 03:24:54;;;;;;;13.30;6.70;;;;;;;4.10;50.15;101571.84;4993092;28;20105;-87
2022/03/11 03:27:20;;;;;;;13.13;6.73;;;;;;;4.09;50.04;101567.56;4992705;28;20057;-87
2022/03/11 03:29:45;;;;;;;11.77;6.60;;;;;;;4.08;50.27;101569.28;4986828;28;20382;-87
2022/03/11 03:32:10;;;;;;;11.65;6.43;;;;;;;4.07;49.84;101564.97;4989447;28;20035;-87
2022/03/11 03:34:38;;;;;;;11.10;5.77;;;;;;;4.09;49.58;101563.28;4982677;28;20031;-88
2022/03/11 03:37:09;;;;;;;10.80;6.13;;;;;;;4.11;49.61;101568.44;4989740;28;20817;-88
2022/03/11 03:39:35;;;;;;;11.57;6.32;;;;;;;4.14;49.53;101565.03;4989998;28;20061;-87
2022/03/11 03:42:01;;;;;;;13.70;6.87;;;;;;;4.15;49.23;101566.75;4992173;28;20030;-88
2022/03/11 03:44:26;;;;;;;11.30;6.57;;;;;;;4.15;49.30;101561.59;4991472;28;20396;-88
2022/03/11 03:46:51;;;;;;;12.27;6.30;;;;;;;4.15;49.26;101556.47;4992009;28;20030;-88
2022/03/11 03:49:17;;;;;;;11.13;6.33;;;;;;;4.16;49.54;101560.75;4990759;28;20081;-87
2022/03/11 03:51:43;;;;;;;12.13;6.53;;;;;;;4.14;49.54;101555.59;4990132;28;20037;-87
2022/03/11 03:54:11;;;;;;;12.73;6.50;;;;;;;4.15;49.49;101548.72;4991459;28;20034;-87
2022/03/11 03:56:41;;;;;;;10.93;6.37;;;;;;;4.16;49.55;101550.47;4991187;28;20026;-87
2022/03/11 03:59:08;;;;;;;12.73;5.90;;;;;;;4.17;49.37;101552.19;4991860;28;20537;-87
2022/03/11 04:01:38;;;;;;;10.70;5.83;;;;;;;4.19;49.26;101547.94;4990076;28;20038;-86
2022/03/11 04:04:04;;;;;;;12.37;6.30;;;;;;;4.19;49.15;101550.50;4992467;28;20041;-87
2022/03/11 04:06:34;;;;;;;11.10;5.93;;;;;;;4.19;49.21;101548.78;4984122;28;20084;-87
2022/03/11 04:09:00;;;;;;;14.50;6.97;;;;;;;4.19;49.21;101546.19;4992399;28;20041;-87
2022/03/11 04:11:27;;;;;;;12.23;7.17;;;;;;;4.19;48.87;101550.50;4991470;28;20050;-86
2022/03/11 04:13:53;;;;;;;12.27;6.57;;;;;;;4.18;48.90;101546.19;4991444;28;20031;-86
2022/03/11 04:16:19;;;;;;;14.20;6.77;;;;;;;4.18;49.34;101541.03;4990024;28;20034;-86
2022/03/11 04:18:45;;;;;;;12.33;6.37;;;;;;;4.18;49.06;101546.19;4990589;28;20380;-87
2022/03/11 04:21:14;;;;;;;12.70;6.50;;;;;;;4.18;48.91;101543.63;4990436;28;20026;-87
2022/03/11 04:23:40;;;;;;;9.85;5.38;;;;;;;4.16;49.37;101558.19;4990090;28;20019;-87
2022/03/11 04:26:06;;;;;;;13.00;5.90;;;;;;;4.15;49.03;101544.47;4991137;28;20026;-88
2022/03/11 04:28:32;;;;;;;12.50;6.23;;;;;;;4.15;48.57;101544.47;4990698;28;20025;-87
2022/03/11 04:30:58;;;;;;;13.17;5.70;;;;;;;4.16;48.95;101537.59;4991440;28;20030;-87
2022/03/11 04:33:24;;;;;;;12.37;6.20;;;;;;;4.14;49.14;101544.44;4988713;28;20174;-87
2022/03/11 04:35:49;;;;;;;11.67;6.13;;;;;;;4.12;49.51;101538.38;4991068;28;20480;-87
2022/03/11 04:38:14;;;;;;;16.83;6.60;;;;;;;4.12;49.28;101541.84;4973984;28;20030;-87
2022/03/11 04:40:40;;;;;;;13.57;6.40;;;;;;;4.10;49.16;101528.09;4972220;28;20027;-87
2022/03/11 04:43:05;;;;;;;12.17;6.27;;;;;;;4.09;49.55;101527.22;4974470;28;20033;-87
2022/03/11 04:45:31;;;;;;;14.63;6.30;;;;;;;4.08;49.65;101535.81;4972317;28;20027;-87
2022/03/11 04:47:56;;;;;;;11.70;6.20;;;;;;;4.09;49.03;101529.81;4975216;28;20027;-87
2022/03/11 04:50:22;;;;;;;12.07;5.90;;;;;;;4.08;49.74;101533.22;4969664;28;20034;-87
2022/03/11 04:52:47;;;;;;;11.13;6.07;;;;;;;4.10;49.53;101531.50;4954037;28;20027;-87
2022/03/11 04:55:15;;;;;;;13.33;6.10;;;;;;;4.13;49.22;101542.69;4971776;28;20022;-86
2022/03/11 04:57:41;;;;;;;13.67;6.70;;;;;;;4.15;49.69;101530.72;4972457;28;20085;-87
2022/03/11 05:00:07;;;;;;;12.25;6.40;;;;;;;4.12;49.94;101533.25;4971789;28;20023;-87
2022/03/11 05:02:32;;;;;;;12.60;6.07;;;;;;;4.09;49.88;101537.53;4970847;28;20499;-87
2022/03/11 05:05:06;;;;;;;12.97;6.17;;;;;;;4.09;49.66;101537.53;4971298;28;20110;-87
2022/03/11 05:07:31;;;;;;;11.57;6.30;;;;;;;4.09;49.81;101537.53;4952630;28;20037;-87
2022/03/11 05:09:57;;;;;;;14.57;6.77;;;;;;;4.10;49.94;101539.22;4954990;28;20031;-87
2022/03/11 05:12:22;;;;;;;11.55;5.85;;;;;;;4.14;49.27;101526.41;4969272;28;20360;-87
2022/03/11 05:14:51;;;;;;;13.97;6.33;;;;;;;4.13;49.79;101522.09;4970011;28;20093;-87
2022/03/11 05:17:17;;;;;;;12.13;6.47;;;;;;;4.13;50.12;101524.66;4977245;28;20034;-87
2022/03/11 05:19:42;;;;;;;14.37;5.87;;;;;;;4.14;49.76;101523.81;4969762;28;20023;-87
2022/03/11 05:22:08;;;;;;;12.95;6.53;;;;;;;4.13;49.65;101522.09;4978974;28;20080;-87
2022/03/11 05:24:34;;;;;;;10.17;5.90;;;;;;;4.12;49.90;101530.66;4974967;28;20061;-87
2022/03/11 05:27:01;;;;;;;11.37;6.13;;;;;;;4.09;49.93;101524.66;4981522;28;20014;-86
2022/03/11 05:29:27;;;;;;;12.13;6.47;;;;;;;4.09;50.35;101519.50;4954979;28;20114;-87
2022/03/11 05:31:52;;;;;;;14.50;5.88;;;;;;;4.09;50.37;101522.09;4957340;28;20113;-86
2022/03/11 05:34:17;;;;;;;11.40;6.27;;;;;;;4.13;49.94;101519.50;4970832;28;20026;-86
2022/03/11 05:36:43;;;;;;;12.80;6.77;;;;;;;4.14;50.28;101518.66;4990369;28;20421;-86
2022/03/11 05:39:08;;;;;;;11.73;6.10;;;;;;;4.12;50.90;101515.22;4989153;28;20464;-87
2022/03/11 05:41:33;;;;;;;12.37;6.53;;;;;;;4.10;50.12;101510.91;4990650;28;20030;-87
2022/03/11 05:43:58;;;;;;;15.57;6.50;;;;;;;4.13;50.46;101517.81;4989170;28;20466;-87
2022/03/11 05:46:24;;;;;;;13.27;6.60;;;;;;;4.09;50.49;101511.78;4991053;28;20034;-87
2022/03/11 05:48:49;;;;;;;14.80;6.50;;;;;;;4.09;51.25;101516.06;4984358;28;20018;-87
2022/03/11 05:51:14;;;;;;;13.27;6.57;;;;;;;4.07;51.01;101508.31;4991373;28;20385;-87
2022/03/11 05:53:39;;;;;;;12.67;6.87;;;;;;;4.06;50.97;101510.84;4993491;28;20031;-87
2022/03/11 05:56:05;;;;;;;12.05;5.78;;;;;;;4.05;51.20;101503.97;4995412;28;20038;-87
2022/03/11 05:58:30;;;;;;;17.30;6.53;;;;;;;4.04;51.42;101503.13;4993808;28;20034;-87
2022/03/11 06:00:55;;;;;;;12.90;6.50;;;;;;;4.03;51.01;101497.94;4993818;28;20037;-87
2022/03/11 06:03:20;;;;;;;14.03;6.47;;;;;;;4.02;51.48;101493.63;4992453;28;20118;-86
2022/03/11 06:05:46;;;;;;;12.37;6.60;;;;;;;4.04;51.30;101499.66;4993454;28;20037;-87
2022/03/11 06:08:11;;;;;;;13.00;6.60;;;;;;;4.02;51.43;101499.66;4993263;28;20101;-87
2022/03/11 06:10:37;;;;;;;15.60;6.87;;;;;;;4.02;51.74;101503.94;4994115;28;20111;-87
2022/03/11 06:13:02;;;;;;;10.33;5.63;;;;;;;4.01;52.04;101497.09;4992710;28;20022;-86
2022/03/11 06:15:27;;;;;;;12.13;6.37;;;;;;;4.01;51.61;101492.78;4993694;28;20732;-87
2022/03/11 06:17:54;;;;;;;11.63;6.80;;;;;;;4.01;51.94;101497.09;4992334;28;20029;-87
2022/03/11 06:20:20;;;;;;;16.27;6.73;;;;;;;4.02;52.16;101496.22;4994442;28;20100;-87
2022/03/11 06:22:47;;;;;;;14.40;7.53;;;;;;;4.02;52.17;101498.78;4992094;28;20378;-86
2022/03/11 06:25:13;;;;;;;16.87;7.80;;;;;;;4.04;51.20;101503.13;4990845;28;20478;-87
2022/03/11 06:27:38;;;;;;;14.73;7.43;;;;;;;4.10;52.19;101502.34;4993334;28;20027;-87
2022/03/11 06:30:04;;;;;;;12.33;6.90;;;;;;;4.09;51.84;101504.06;4994684;28;20026;-87
2022/03/11 06:32:29;;;;;;;13.07;6.93;;;;;;;4.13;51.99;101494.66;4990464;28;20029;-87
2022/03/11 06:34:54;;;;;;;14.77;7.07;;;;;;;4.16;52.42;101498.97;4988902;28;20039;-86
2022/03/11 06:37:20;;;;;;;14.30;7.13;;;;;;;4.17;52.48;101498.13;4972488;28;20035;-87
2022/03/11 06:39:45;;;;;;;13.20;7.13;;;;;;;4.19;52.49;101501.56;4972947;28;20046;-86
2022/03/11 06:42:10;;;;;;;14.97;7.63;;;;;;;4.21;52.01;101497.31;4973415;28;20085;-86
2022/03/11 06:44:36;;;;;;;15.97;7.20;;;;;;;4.24;51.95;101498.19;4972783;28;21650;-86
2022/03/11 06:47:01;;;;;;;12.70;6.80;;;;;;;4.29;51.95;101508.53;4972297;28;20038;-86
2022/03/11 06:49:26;;;;;;;15.30;7.43;;;;;;;4.31;52.05;101511.16;4971663;28;20113;-86
2022/03/11 06:51:51;;;;;;;13.47;6.87;;;;;;;4.32;52.04;101515.47;4972739;28;20031;-86
2022/03/11 06:54:17;;;;;;;15.70;7.20;;;;;;;4.36;52.68;101509.47;4973378;28;20023;-86
2022/03/11 06:56:42;;;;;;;14.38;7.00;;;;;;;4.39;51.88;101505.25;4973411;28;20030;-86
2022/03/11 06:59:07;;;;;;;13.90;7.07;;;;;;;4.43;51.69;101503.56;4972533;28;20130;-86
2022/03/11 07:01:33;;;;;;;16.95;8.00;;;;;;;4.46;52.40;101500.13;4953454;28;20472;-86
2022/03/11 07:03:58;;;;;;;15.63;7.57;;;;;;;4.47;52.17;101495.00;4972318;28;20027;-86
2022/03/11 07:06:24;;;;;;;12.68;6.85;;;;;;;4.51;51.89;101494.19;4972939;28;20032;-86
2022/03/11 07:08:49;;;;;;;13.67;7.70;;;;;;;4.52;52.29;101492.47;4954073;28;20041;-86
2022/03/11 07:11:14;;;;;;;14.37;7.47;;;;;;;4.55;52.39;101490.78;4956033;28;20443;-87
2022/03/11 07:13:39;;;;;;;16.08;7.40;;;;;;;4.58;52.06;101491.66;4973531;28;20034;-87
2022/03/11 07:16:05;;;;;;;13.35;7.15;;;;;;;4.61;51.70;101495.13;4970252;28;20027;-86
2022/03/11 07:18:31;;;;;;;15.07;7.60;;;;;;;4.65;51.66;101485.72;4973106;28;20031;-87
2022/03/11 07:20:56;;;;;;;13.23;7.20;;;;;;;4.68;51.51;101491.78;4973530;28;20034;-86
2022/03/11 07:23:22;;;;;;;14.50;7.55;;;;;;;4.73;51.81;101493.53;4972344;28;20118;-86
2022/03/11 07:25:48;;;;;;;15.82;7.38;;;;;;;4.77;51.71;101491.00;4953824;28;20044;-86
2022/03/11 07:28:13;;;;;;;14.27;7.70;;;;;;;4.82;51.73;101493.59;4973071;28;20082;-86
2022/03/11 07:30:38;;;;;;;17.63;8.00;;;;;;;4.85;51.52;101485.91;4973200;28;20039;-87
2022/03/11 07:33:06;;;;;;;13.95;7.32;;;;;;;4.90;51.43;101494.53;4972345;28;20591;-86
2022/03/11 07:35:31;;;;;;;19.83;8.83;;;;;;;4.93;51.07;101492.00;4972026;28;20047;-87
2022/03/11 07:37:57;;;;;;;12.98;7.45;;;;;;;4.97;52.70;101491.16;4969774;28;20026;-86
2022/03/11 07:40:22;;;;;;;13.77;7.60;;;;;;;5.01;51.46;101494.63;4973289;28;20034;-86
2022/03/11 07:42:47;;;;;;;15.05;7.82;;;;;;;5.03;51.30;101492.94;4974379;28;20023;-86
2022/03/11 07:45:13;;;;;;;18.50;8.00;;;;;;;5.08;52.07;101488.66;4972589;28;20030;-85
2022/03/11 07:47:41;;;;;;;15.88;8.02;;;;;;;5.12;51.34;101492.13;4974272;28;20486;-86
2022/03/11 07:50:08;;;;;;;16.00;8.27;;;;;;;5.16;50.80;101488.72;4970496;28;20033;-86
2022/03/11 07:52:34;;;;;;;14.68;7.90;;;;;;;5.19;51.13;101486.16;4971958;28;20055;-86
2022/03/11 07:54:59;;;;;;;15.10;8.38;;;;;;;5.23;52.03;101485.34;4973001;28;20034;-86
2022/03/11 07:57:24;;;;;;;15.05;8.05;;;;;;;5.29;51.84;101477.66;4971860;28;20085;-86
2022/03/11 07:59:50;;;;;;;13.95;7.93;;;;;;;5.35;50.86;101478.50;4970746;28;20077;-87
2022/03/11 08:02:15;;;;;;;15.45;8.07;;;;;;;5.39;50.55;101472.53;4971831;28;20086;-87
2022/03/11 08:04:41;;;;;;;16.25;8.57;;;;;;;5.43;51.55;101477.72;4973198;28;20031;-87
2022/03/11 08:07:09;;;;;;;15.57;9.15;;;;;;;5.48;50.67;101485.47;4972452;28;20159;-87
2022/03/11 08:09:35;;;;;;;15.50;7.80;;;;;;;5.52;50.65;101476.91;4972371;28;20274;-87
2022/03/11 08:12:00;;;;;;;18.30;9.07;;;;;;;5.57;50.67;101471.75;4954068;28;20317;-87
2022/03/11 08:14:26;;;;;;;19.60;8.80;;;;;;;5.61;50.17;101465.75;4955355;28;20509;-86
2022/03/11 08:16:51;;;;;;;16.45;9.02;;;;;;;5.66;49.99;101458.03;4967601;28;20474;-87
2022/03/11 08:19:16;;;;;;;14.75;8.30;;;;;;;5.70;50.99;101467.53;4972472;28;20030;-87
2022/03/11 08:21:42;;;;;;;18.58;8.77;;;;;;;5.74;50.24;101459.78;4953514;28;20023;-87
2022/03/11 08:24:07;;;;;;;15.80;8.38;;;;;;;5.78;51.82;101452.94;4967878;28;20519;-87
2022/03/11 08:26:32;;;;;;;16.77;8.73;;;;;;;5.83;50.61;101456.38;4967056;28;20053;-87
2022/03/11 08:28:58;;;;;;;17.10;8.57;;;;;;;5.88;50.49;101457.28;4972966;28;20038;-87
2022/03/11 08:31:23;;;;;;;17.85;9.30;;;;;;;5.92;50.20;101451.28;4971339;28;20035;-87
2022/03/11 08:33:49;;;;;;;19.35;9.43;;;;;;;5.99;51.16;101451.28;4971428;28;20031;-87
2022/03/11 08:36:14;;;;;;;19.52;8.95;;;;;;;6.03;50.65;101453.03;4986225;28;20451;-87
2022/03/11 08:38:40;;;;;;;16.02;9.23;;;;;;;6.07;50.00;101444.44;4991502;28;20057;-87
2022/03/11 08:41:07;;;;;;;16.65;8.57;;;;;;;6.14;50.65;101447.91;4991766;28;20030;-86
2022/03/11 08:43:34;;;;;;;19.48;10.05;;;;;;;6.19;49.82;101444.47;4990650;28;20022;-87
2022/03/11 08:46:01;;;;;;;19.17;9.15;;;;;;;6.25;50.31;101441.03;4974666;28;20022;-87
2022/03/11 08:48:28;;;;;;;16.52;9.43;;;;;;;6.29;50.29;101441.94;4991013;28;20050;-87
2022/03/11 08:50:53;;;;;;;15.93;8.95;;;;;;;6.35;49.01;101434.16;4992404;28;20018;-87
2022/03/11 08:53:19;;;;;;;15.73;9.02;;;;;;;6.38;49.97;101442.81;4973995;28;20030;-87
2022/03/11 08:55:44;;;;;;;15.43;8.38;;;;;;;6.44;49.18;101439.34;4991709;28;20030;-87
2022/03/11 08:58:09;;;;;;;18.63;9.48;;;;;;;6.49;48.69;101434.19;4989470;28;20078;-87
2022/03/11 09:00:35;;;;;;;16.77;9.27;;;;;;;6.53;48.65;101434.19;4972094;28;20026;-86
2022/03/11 09:03:00;;;;;;;17.08;8.63;;;;;;;6.60;49.11;101434.19;4990633;28;20019;-87
2022/03/11 09:05:26;;;;;;;20.65;10.02;;;;;;;6.65;49.49;101437.66;4990876;28;20036;-87
2022/03/11 09:07:51;;;;;;;20.83;9.70;;;;;;;6.68;49.78;101435.03;4972420;28;20121;-87
2022/03/11 09:10:18;;;;;;;17.52;9.52;;;;;;;6.74;49.38;101431.63;4991318;28;20041;-87
2022/03/11 09:12:45;;;;;;;23.38;10.13;;;;;;;6.77;49.16;101431.59;4991492;28;20389;-87
2022/03/11 09:15:11;;;;;;;18.15;9.63;;;;;;;6.83;48.52;101429.00;4992035;28;20103;-87
2022/03/11 09:17:36;;;;;;;19.63;10.38;;;;;;;6.89;49.17;101429.03;4991226;28;20056;-86
2022/03/11 09:20:03;;;;;;;21.58;10.48;;;;;;;6.94;49.26;101418.66;4992127;28;20034;-86
2022/03/11 09:22:33;;;;;;;18.90;9.82;;;;;;;7.01;49.24;101424.69;4989312;28;20019;-86
2022/03/11 09:25:00;;;;;;;19.35;10.68;;;;;;;7.06;49.11;101422.97;4974523;28;20026;-87
2022/03/11 09:27:27;;;;;;;19.05;10.13;;;;;;;7.13;48.97;101419.47;4992191;28;20031;-87
2022/03/11 09:29:52;;;;;;;21.80;10.32;;;;;;;7.21;48.69;101414.28;4992232;28;20068;-87
2022/03/11 09:32:18;;;;;;;18.00;9.93;;;;;;;7.26;49.59;101416.00;4990767;28;20105;-87
2022/03/11 09:34:43;;;;;;;21.05;9.40;;;;;;;7.35;49.39;101407.34;4990513;28;20030;-87
2022/03/11 09:37:10;;;;;;;21.33;9.85;;;;;;;7.46;49.48;101411.63;4991659;28;20092;-87
2022/03/11 09:39:35;;;;;;;19.13;9.85;;;;;;;7.53;48.54;101400.38;4991860;28;20026;-87
2022/03/11 09:42:02;;;;;;;18.90;10.00;;;;;;;7.62;48.51;101402.06;4991655;28;20337;-87
2022/03/11 09:44:27;;;;;;;17.73;9.48;;;;;;;7.68;48.29;101395.16;4992076;28;20097;-87
2022/03/11 09:46:53;;;;;;;24.38;10.13;;;;;;;7.76;49.34;101400.31;4991202;28;20078;-87
2022/03/11 09:49:18;;;;;;;16.73;9.82;;;;;;;7.80;48.90;101396.81;4974441;28;20062;-87
2022/03/11 09:51:47;;;;;;;16.92;9.50;;;;;;;7.87;48.60;101393.31;4991205;28;20030;-87
2022/03/11 09:54:13;;;;;;;25.67;10.07;;;;;;;7.95;47.62;101380.31;4991888;28;20069;-87
2022/03/11 09:56:40;;;;;;;17.83;9.98;;;;;;;7.99;48.07;101374.25;4991610;28;20050;-87
2022/03/11 09:59:07;;;;;;;19.25;9.95;;;;;;;8.06;48.19;101382.84;4991744;28;20094;-87
2022/03/11 10:01:33;;;;;;;23.55;10.77;;;;;;;8.14;48.00;101375.03;4991941;28;20030;-87
2022/03/11 10:03:58;;;;;;;21.27;10.80;;;;;;;8.20;48.71;101374.97;4990929;28;20072;-87
2022/03/11 10:06:37;;;;;;;21.52;10.13;;;;;;;8.28;48.89;101368.00;4990004;28;20032;-87
2022/03/11 10:09:03;;;;;;;18.60;9.75;;;;;;;8.34;50.01;101362.78;4990304;28;20037;-88
2022/03/11 10:11:28;;;;;;;17.80;10.00;;;;;;;8.41;48.27;101352.34;4991688;28;20019;-86
2022/03/11 10:14:03;;;;;;;20.95;9.75;;;;;;;8.48;48.17;101356.63;4972493;28;20023;-87
2022/03/11 10:16:29;;;;;;;22.45;10.38;;;;;;;8.56;48.59;101364.34;4989197;28;20034;-86
2022/03/11 10:19:07;;;;;;;21.63;10.02;;;;;;;8.65;48.12;101353.88;4991129;28;20103;-86
2022/03/11 10:21:39;;;;;;;24.13;10.45;;;;;;;8.74;47.89;101345.16;4991696;28;20030;-86
2022/03/11 10:24:06;;;;;;;21.90;10.30;;;;;;;8.85;48.38;101350.22;4988939;28;20014;-86
2022/03/11 10:26:34;;;;;;;22.38;9.88;;;;;;;8.92;48.31;101352.75;4989240;28;20022;-86
2022/03/11 10:29:03;;;;;;;22.42;10.05;;;;;;;8.98;47.92;101349.22;4990183;28;20101;-86
2022/03/11 10:31:32;;;;;;;20.15;10.20;;;;;;;9.05;48.25;101347.44;4974276;28;20034;-86
2022/03/11 10:34:22;;;;;;;23.08;9.20;;;;;;;9.10;47.13;101343.91;4992975;28;20027;-86
2022/03/11 10:36:48;;;;;;;20.83;10.25;;;;;;;9.15;47.93;101340.38;4976418;28;20593;-86
2022/03/11 10:39:15;;;;;;;24.85;10.23;;;;;;;9.20;48.06;101355.06;4992478;28;20482;-86
2022/03/11 10:41:41;;;;;;;25.92;10.73;;;;;;;9.23;46.83;101338.56;4992405;28;20030;-86
2022/03/11 10:44:09;;;;;;;22.52;10.35;;;;;;;9.25;46.71;101337.66;4991789;28;20026;-86
2022/03/11 10:46:35;;;;;;;29.10;11.20;;;;;;;9.31;46.73;101335.88;4988935;28;20076;-86
2022/03/11 10:49:01;;;;;;;22.70;10.45;;;;;;;9.34;47.64;101330.66;4975150;28;20026;-86
2022/03/11 10:51:33;;;;;;;22.98;11.00;;;;;;;9.38;46.85;101332.34;4974600;28;20037;-86
2022/03/11 10:54:01;;;;;;;19.48;10.52;;;;;;;9.40;46.98;101325.34;4994220;28;20030;-86
2022/03/11 10:56:39;;;;;;;20.52;10.15;;;;;;;9.45;46.35;101323.56;4989487;28;20417;-86
2022/03/11 10:59:23;;;;;;;22.92;10.32;;;;;;;9.52;46.23;101324.34;4994017;28;20061;-86
2022/03/11 11:01:51;;;;;;;25.55;11.55;;;;;;;9.56;46.19;101316.47;4993243;28;20026;-85
2022/03/11 11:04:17;;;;;;;18.77;10.13;;;;;;;9.63;46.00;101321.59;4993731;28;20113;-86
2022/03/11 11:06:44;;;;;;;26.88;11.07;;;;;;;9.69;48.29;101311.13;4993304;28;20022;-86
2022/03/11 11:09:12;;;;;;;26.50;10.27;;;;;;;9.76;46.87;101301.50;4976093;28;20038;-86
2022/03/11 11:11:38;;;;;;;20.15;10.75;;;;;;;9.81;46.32;101316.13;4993034;28;20343;-86
2022/03/11 11:14:07;;;;;;;21.30;9.63;;;;;;;9.85;45.22;101307.44;4992955;28;20108;-86
2022/03/11 11:16:39;;;;;;;21.98;10.95;;;;;;;9.92;45.41;101313.38;4985789;28;20029;-86
2022/03/11 11:19:06;;;;;;;20.10;11.00;;;;;;;9.98;45.55;101302.03;4986424;28;20522;-86